GMT,Max TemperatureF,Mean TemperatureF,Min TemperatureF,Max Dew PointF,MeanDew PointF,Min DewpointF,Max Humidity, Mean Humidity, Min Humidity, Max Sea Level PressureIn, Mean Sea Level PressureIn, Min Sea Level PressureIn, Max VisibilityMiles, Mean VisibilityMiles, Min VisibilityMiles, Max Wind SpeedMPH, Mean Wind SpeedMPH, Max Gust SpeedMPH,PrecipitationIn, CloudCover, Events, WindDirDegrees
2012-11-1,42,40,39,39,38,36,93,90,81,28.80,28.77,28.74,6,6,6,10,3,23,0.00,3,Fog-Rain,231
2012-11-2,46,42,37,43,39,36,93,85,76,29.09,28.96,28.91,6,6,6,25,18,37,0.00,3,Rain,238
2012-11-3,,,,,,,,,,,,,,,,,,,,,,
2012-11-4,,,,,,,,,,,,,,,,,,,,,,
2012-11-5,44,40,35,39,38,36,100,90,81,29.92,29.84,29.80,6,6,0,5,2,,0.00,2,Fog,225
2012-11-6,50,48,46,48,47,46,100,93,87,30.06,29.99,29.95,6,6,4,17,14,,0.00,7,Rain,243
2012-11-7,50,49,48,48,46,45,94,90,87,30.09,30.02,29.95,6,6,3,24,17,36,0.00,5,Rain,236
2012-11-8,50,48,46,46,45,45,93,89,82,29.95,29.93,29.92,6,6,6,16,13,,0.00,3,Rain,248
2012-11-9,50,48,44,48,46,41,100,90,82,29.56,29.48,29.42,6,6,4,16,12,,0.00,6,Rain,209
2012-11-10,,,,,,,,,,,,,,,,,,,,,,
2012-11-11,,,,,,,,,,,,,,,,,,,,,,
2012-11-12,50,47,44,48,45,41,100,92,87,29.92,29.90,29.86,6,5,2,13,10,23,0.00,6,Rain,178
2012-11-13,55,54,53,50,50,48,88,86,82,30.06,30.04,30.04,6,6,6,20,12,,0.00,3,,192
2012-11-14,53,52,51,48,47,46,88,81,77,30.21,30.20,30.18,6,6,6,17,12,,0.00,5,,222
2012-11-15,51,50,50,48,47,46,88,86,82,30.18,30.10,30.06,6,6,6,8,5,,0.00,6,,193
2012-11-16,46,45,44,43,43,43,93,89,87,29.92,29.84,29.77,6,6,5,9,5,,0.00,6,Fog,190
2012-11-17,,,,,,,,,,,,,,,,,,,,,,
2012-11-18,,,,,,,,,,,,,,,,,,,,,,
2012-11-19,51,48,44,48,45,41,93,86,81,29.47,29.43,29.42,6,6,6,24,18,37,0.00,3,Rain,184
2012-11-20,55,52,50,54,49,43,94,86,76,29.50,29.45,29.39,6,6,6,14,10,24,0.00,3,Rain,183
2012-11-21,46,45,44,43,42,41,93,84,81,29.71,29.70,29.68,6,6,6,5,2,,0.00,2,,170
2012-11-22,51,46,42,48,45,43,100,94,82,29.47,29.37,29.30,6,5,3,18,11,34,0.00,8,Rain,216
2012-11-23,46,44,41,41,39,37,93,85,76,29.74,29.70,29.65,6,6,6,17,11,,0.00,2,Rain,205
2012-11-24,,,,,,,,,,,,,,,,,,,,,,
2012-11-25,,,,,,,,,,,,,,,,,,,,,,
2012-11-26,44,43,42,41,40,39,93,88,81,29.65,29.61,29.59,6,6,6,14,10,,0.00,7,Rain,16
2012-11-27,42,40,39,41,39,36,93,89,87,29.98,29.93,29.86,6,6,6,9,6,,0.00,4,Rain,350
2012-11-28,39,36,33,34,32,30,87,81,75,30.09,30.07,30.06,6,6,6,6,3,,0.00,3,,292
2012-11-29,35,30,24,30,29,25,100,92,81,29.98,29.93,29.89,6,6,6,1,1,,0.00,2,,97
2012-11-30,33,30,24,30,28,23,100,94,87,29.92,29.89,29.86,6,6,6,2,0,,0.00,,,120